createdAt,value
2022-09-06T00:00:01.715Z,17.71
2022-09-06T00:01:13.897Z,17.72
2022-09-06T00:02:15.884Z,17.74
2022-09-06T00:03:17.791Z,17.74
2022-09-06T00:04:19.737Z,17.77
2022-09-06T00:05:21.875Z,17.77
2022-09-06T00:06:23.862Z,17.78
2022-09-06T00:07:25.760Z,17.79
2022-09-06T00:08:27.878Z,17.80
2022-09-06T00:09:29.965Z,17.84
2022-09-06T00:10:32.401Z,17.85
2022-09-06T00:11:34.342Z,17.81
2022-09-06T00:12:36.249Z,17.79
2022-09-06T00:13:38.680Z,17.80
2022-09-06T00:14:40.593Z,17.85
2022-09-06T00:15:42.741Z,17.86
2022-09-06T00:16:44.649Z,17.83
2022-09-06T00:17:46.842Z,17.82
2022-09-06T00:18:48.762Z,17.87
2022-09-06T00:19:50.721Z,17.88
2022-09-06T00:20:52.689Z,17.89
2022-09-06T00:21:54.568Z,17.89
2022-09-06T00:23:05.172Z,17.87
2022-09-06T00:24:07.038Z,17.88
2022-09-06T00:25:09.384Z,17.88
2022-09-06T00:26:11.413Z,17.90
2022-09-06T00:27:13.341Z,17.93
2022-09-06T00:28:16.245Z,17.95
2022-09-06T00:29:18.167Z,17.94
2022-09-06T00:30:20.090Z,17.94
2022-09-06T00:31:24.083Z,17.94
2022-09-06T00:32:26.692Z,17.94
2022-09-06T00:33:28.577Z,17.95
2022-09-06T00:34:30.574Z,17.96
2022-09-06T00:35:32.497Z,18.00
2022-09-06T00:36:34.444Z,17.99
2022-09-06T00:37:36.374Z,17.97
2022-09-06T00:38:38.803Z,17.98
2022-09-06T00:39:40.728Z,18.00
2022-09-06T00:40:42.802Z,18.00
2022-09-06T00:41:44.715Z,17.97
2022-09-06T00:42:46.567Z,17.94
2022-09-06T00:43:48.617Z,17.96
2022-09-06T00:44:50.882Z,17.96
2022-09-06T00:45:53.447Z,17.94
2022-09-06T00:46:55.842Z,17.95
2022-09-06T00:47:59.602Z,17.95
2022-09-06T00:49:09.647Z,17.88
2022-09-06T00:50:12.817Z,17.84
2022-09-06T00:51:16.287Z,17.85
2022-09-06T00:52:20.058Z,17.87
2022-09-06T00:53:22.559Z,17.91
2022-09-06T00:54:26.266Z,17.92
2022-09-06T00:55:28.705Z,17.94
2022-09-06T00:56:31.734Z,17.94
2022-09-06T00:57:35.242Z,17.92
2022-09-06T00:58:37.577Z,17.92
2022-09-06T00:59:40.544Z,17.93
2022-09-06T01:00:43.681Z,17.92
2022-09-06T01:01:45.672Z,17.92
2022-09-06T01:02:48.055Z,17.88
2022-09-06T01:03:50.149Z,17.88
2022-09-06T01:04:53.020Z,17.90
2022-09-06T01:05:54.850Z,17.92
2022-09-06T01:07:16.818Z,17.95
2022-09-06T01:08:30.697Z,17.95
2022-09-06T01:09:41.571Z,17.89
2022-09-06T01:10:52.255Z,17.85
2022-09-06T01:12:29.353Z,17.87
2022-09-06T01:13:31.488Z,17.87
2022-09-06T01:14:48.295Z,17.91
2022-09-06T01:15:52.992Z,17.90
2022-09-06T01:16:54.906Z,17.89
2022-09-06T01:18:11.465Z,17.91
2022-09-06T01:19:16.251Z,17.93
2022-09-06T01:20:29.304Z,17.93
2022-09-06T01:21:40.475Z,17.94
2022-09-06T01:23:00.979Z,17.96
2022-09-06T01:24:21.423Z,17.95
2022-09-06T01:25:26.046Z,17.94
2022-09-06T01:26:27.935Z,17.92
2022-09-06T01:27:40.317Z,17.92
2022-09-06T01:28:44.290Z,17.93
2022-09-06T01:29:51.868Z,17.92
2022-09-06T01:31:02.538Z,17.94
2022-09-06T01:32:09.906Z,17.89
2022-09-06T01:33:20.016Z,17.87
2022-09-06T01:34:24.914Z,17.86
2022-09-06T01:35:32.584Z,17.88
2022-09-06T01:36:45.758Z,17.89
2022-09-06T01:37:57.460Z,17.85
2022-09-06T01:38:59.233Z,17.82
2022-09-06T01:40:01.213Z,17.82
2022-09-06T01:41:03.090Z,17.81
2022-09-06T01:42:10.448Z,17.82
2022-09-06T01:43:14.103Z,17.82
2022-09-06T01:44:15.951Z,17.79
2022-09-06T01:45:20.089Z,17.79
2022-09-06T01:46:25.037Z,17.77
2022-09-06T01:47:26.873Z,17.76
2022-09-06T01:48:47.545Z,17.79
2022-09-06T01:49:55.440Z,17.79
2022-09-06T01:51:19.221Z,17.78
2022-09-06T01:52:29.404Z,17.79
2022-09-06T01:53:31.187Z,17.77
2022-09-06T01:54:50.872Z,17.77
2022-09-06T01:56:01.836Z,17.79
2022-09-06T01:57:12.802Z,17.77
2022-09-06T01:58:20.777Z,17.73
2022-09-06T01:59:41.044Z,17.69
2022-09-06T02:01:09.293Z,17.69
2022-09-06T02:02:14.781Z,17.72
2022-09-06T02:03:33.491Z,17.75
2022-09-06T02:04:38.078Z,17.72
2022-09-06T02:05:43.649Z,17.73
2022-09-06T02:06:47.904Z,17.75
2022-09-06T02:07:52.967Z,17.74
2022-09-06T02:09:02.996Z,17.74
2022-09-06T02:10:09.781Z,17.76
2022-09-06T02:11:14.686Z,17.73
2022-09-06T02:12:18.799Z,17.73
2022-09-06T02:13:23.461Z,17.71
2022-09-06T02:14:31.683Z,17.65
2022-09-06T02:15:35.178Z,17.66
2022-09-06T02:16:39.194Z,17.65
2022-09-06T02:17:43.490Z,17.64
2022-09-06T02:18:51.677Z,17.59
2022-09-06T02:20:01.766Z,17.62
2022-09-06T02:21:04.322Z,17.63
2022-09-06T02:22:08.217Z,17.64
2022-09-06T02:23:10.674Z,17.67
2022-09-06T02:24:17.364Z,17.65
2022-09-06T02:25:22.178Z,17.68
2022-09-06T02:26:26.347Z,17.68
2022-09-06T02:27:30.990Z,17.68
2022-09-06T02:28:33.380Z,17.69
2022-09-06T02:29:35.691Z,17.70
2022-09-06T02:30:43.162Z,17.71
2022-09-06T02:31:47.754Z,17.68
2022-09-06T02:33:02.127Z,17.68
2022-09-06T02:34:05.031Z,17.67
2022-09-06T02:35:09.147Z,17.66
2022-09-06T02:36:11.074Z,17.62
2022-09-06T02:37:13.694Z,17.61
2022-09-06T02:38:15.797Z,17.59
2022-09-06T02:39:17.686Z,17.59
2022-09-06T02:40:19.765Z,17.61
2022-09-06T02:41:24.326Z,17.63
2022-09-06T02:42:26.795Z,17.66
2022-09-06T02:43:28.630Z,17.67
2022-09-06T02:44:30.519Z,17.65
2022-09-06T02:45:32.363Z,17.62
2022-09-06T02:46:34.290Z,17.57
2022-09-06T02:47:36.199Z,17.57
2022-09-06T02:48:38.137Z,17.56
2022-09-06T02:49:40.005Z,17.58
2022-09-06T02:50:41.838Z,17.58
2022-09-06T02:51:43.723Z,17.53
2022-09-06T02:52:45.574Z,17.51
2022-09-06T02:53:47.668Z,17.50
2022-09-06T02:54:49.467Z,17.52
2022-09-06T02:55:51.331Z,17.55
2022-09-06T02:56:53.177Z,17.55
2022-09-06T02:57:55.025Z,17.55
2022-09-06T02:58:56.977Z,17.57
2022-09-06T02:59:58.848Z,17.58
2022-09-06T03:01:00.920Z,17.62
2022-09-06T03:02:02.789Z,17.63
2022-09-06T03:03:04.956Z,17.59
2022-09-06T03:04:06.915Z,17.56
2022-09-06T03:05:09.003Z,17.57
2022-09-06T03:06:10.970Z,17.58
2022-09-06T03:07:12.761Z,17.62
2022-09-06T03:08:14.565Z,17.63
2022-09-06T03:09:16.421Z,17.63
2022-09-06T03:10:18.552Z,17.58
2022-09-06T03:11:20.475Z,17.60
2022-09-06T03:12:22.304Z,17.59
2022-09-06T03:13:24.791Z,17.62
2022-09-06T03:14:26.623Z,17.62
2022-09-06T03:15:28.479Z,17.62
2022-09-06T03:16:30.709Z,17.59
2022-09-06T03:17:32.478Z,17.61
2022-09-06T03:18:34.317Z,17.63
2022-09-06T03:19:36.279Z,17.61
2022-09-06T03:20:38.254Z,17.60
2022-09-06T03:21:40.104Z,17.59
2022-09-06T03:22:42.080Z,17.59
2022-09-06T03:23:43.956Z,17.55
2022-09-06T03:24:45.775Z,17.53
2022-09-06T03:25:47.617Z,17.52
2022-09-06T03:26:49.542Z,17.54
2022-09-06T03:27:51.598Z,17.55
2022-09-06T03:28:53.578Z,17.56
2022-09-06T03:29:55.556Z,17.58
2022-09-06T03:30:57.538Z,17.60
2022-09-06T03:31:59.369Z,17.63
2022-09-06T03:33:02.942Z,17.63
2022-09-06T03:34:09.057Z,17.63
2022-09-06T03:35:12.634Z,17.64
2022-09-06T03:36:14.811Z,17.65
2022-09-06T03:37:16.753Z,17.66
2022-09-06T03:38:18.791Z,17.66
2022-09-06T03:39:21.518Z,17.68
2022-09-06T03:40:23.504Z,17.68
2022-09-06T03:41:25.363Z,17.66
2022-09-06T03:42:27.846Z,17.62
2022-09-06T03:43:29.882Z,17.60
2022-09-06T03:44:31.692Z,17.59
2022-09-06T03:45:33.536Z,17.58
2022-09-06T03:46:35.487Z,17.59
2022-09-06T03:47:37.454Z,17.58
2022-09-06T03:48:39.289Z,17.60
2022-09-06T03:49:41.109Z,17.58
2022-09-06T03:50:46.807Z,17.57
2022-09-06T03:51:48.736Z,17.58
2022-09-06T03:52:50.648Z,17.57
2022-09-06T03:53:52.470Z,17.58
2022-09-06T03:54:54.393Z,17.57
2022-09-06T03:55:57.889Z,17.57
2022-09-06T03:56:59.768Z,17.54
2022-09-06T03:58:01.619Z,17.54
2022-09-06T03:59:03.446Z,17.56
2022-09-06T04:00:05.660Z,17.56
2022-09-06T04:01:09.403Z,17.57
2022-09-06T04:02:11.271Z,17.57
2022-09-06T04:03:13.668Z,17.57
2022-09-06T04:04:15.489Z,17.54
2022-09-06T04:05:17.818Z,17.54
2022-09-06T04:06:19.689Z,17.56
2022-09-06T04:07:23.004Z,17.56
2022-09-06T04:08:24.910Z,17.57
2022-09-06T04:09:26.750Z,17.57
2022-09-06T04:10:28.845Z,17.59
2022-09-06T04:11:30.673Z,17.54
2022-09-06T04:12:32.534Z,17.50
2022-09-06T04:13:35.287Z,17.43
2022-09-06T04:14:37.121Z,17.40
2022-09-06T04:15:39.000Z,17.42
2022-09-06T04:16:41.002Z,17.44
2022-09-06T04:17:46.295Z,17.42
2022-09-06T04:18:48.162Z,17.44
2022-09-06T04:19:49.944Z,17.43
2022-09-06T04:20:53.174Z,17.44
2022-09-06T04:21:55.039Z,17.45
2022-09-06T04:22:56.834Z,17.44
2022-09-06T04:23:58.979Z,17.46
2022-09-06T04:25:01.684Z,17.46
2022-09-06T04:26:03.958Z,17.48
2022-09-06T04:27:05.850Z,17.46
2022-09-06T04:28:07.730Z,17.46
2022-09-06T04:29:09.649Z,17.46
2022-09-06T04:30:11.779Z,17.44
2022-09-06T04:31:13.646Z,17.41
2022-09-06T04:32:15.447Z,17.41
2022-09-06T04:33:17.324Z,17.42
2022-09-06T04:34:20.047Z,17.37
2022-09-06T04:35:21.910Z,17.32
2022-09-06T04:36:23.805Z,17.31
2022-09-06T04:37:25.635Z,17.33
2022-09-06T04:38:28.523Z,17.35
2022-09-06T04:39:30.539Z,17.36
2022-09-06T04:40:32.497Z,17.35
2022-09-06T04:41:34.338Z,17.30
2022-09-06T04:42:36.291Z,17.28
2022-09-06T04:43:38.474Z,17.26
2022-09-06T04:44:40.386Z,17.21
2022-09-06T04:45:42.861Z,17.22
2022-09-06T04:46:44.999Z,17.24
2022-09-06T04:47:47.238Z,17.22
2022-09-06T04:48:49.846Z,17.22
2022-09-06T04:49:51.751Z,17.21
2022-09-06T04:50:53.538Z,17.22
2022-09-06T04:51:55.424Z,17.15
2022-09-06T04:52:57.287Z,17.14
2022-09-06T04:53:59.111Z,17.18
2022-09-06T04:55:00.884Z,17.20
2022-09-06T04:56:02.945Z,17.22
2022-09-06T04:57:04.808Z,17.21
2022-09-06T04:58:06.739Z,17.23
2022-09-06T04:59:08.647Z,17.25
2022-09-06T05:00:10.800Z,17.23
2022-09-06T05:01:12.950Z,17.22
2022-09-06T05:02:14.840Z,17.23
2022-09-06T05:03:16.666Z,17.18
2022-09-06T05:04:18.588Z,17.14
2022-09-06T05:05:21.078Z,17.15
2022-09-06T05:06:24.086Z,17.13
2022-09-06T05:07:26.585Z,17.13
2022-09-06T05:08:28.774Z,17.14
2022-09-06T05:09:31.968Z,17.15
2022-09-06T05:10:33.843Z,17.15
2022-09-06T05:11:35.800Z,17.14
2022-09-06T05:12:42.063Z,17.16
2022-09-06T05:13:46.917Z,17.17
2022-09-06T05:14:48.889Z,17.18
2022-09-06T05:15:50.675Z,17.17
2022-09-06T05:16:53.431Z,17.19
2022-09-06T05:18:01.385Z,17.19
2022-09-06T05:19:03.232Z,17.18
2022-09-06T05:20:05.410Z,17.17
2022-09-06T05:21:07.981Z,17.16
2022-09-06T05:22:11.515Z,17.17
2022-09-06T05:23:13.387Z,17.14
2022-09-06T05:24:15.228Z,17.09
2022-09-06T05:25:17.097Z,17.11
2022-09-06T05:26:18.928Z,17.14
2022-09-06T05:27:20.763Z,17.13
2022-09-06T05:28:23.391Z,17.11
2022-09-06T05:29:29.957Z,17.11
2022-09-06T05:30:32.381Z,17.10
2022-09-06T05:31:35.153Z,17.09
2022-09-06T05:32:37.140Z,17.11
2022-09-06T05:33:39.114Z,17.13
2022-09-06T05:34:40.933Z,17.13
2022-09-06T05:35:42.843Z,17.13
2022-09-06T05:36:46.359Z,17.13
2022-09-06T05:37:48.504Z,17.15
2022-09-06T05:38:54.392Z,17.16
2022-09-06T05:39:56.447Z,17.18
2022-09-06T05:40:58.451Z,17.13
2022-09-06T05:42:00.868Z,17.12
2022-09-06T05:43:02.809Z,17.14
2022-09-06T05:44:04.731Z,17.13
2022-09-06T05:45:07.048Z,17.14
2022-09-06T05:46:09.714Z,17.16
2022-09-06T05:47:11.555Z,17.18
2022-09-06T05:48:13.377Z,17.16
2022-09-06T05:49:15.379Z,17.12
2022-09-06T05:50:17.287Z,17.11
2022-09-06T05:51:19.203Z,17.11
2022-09-06T05:52:21.032Z,17.14
2022-09-06T05:53:22.926Z,17.15
2022-09-06T05:54:24.930Z,17.17
2022-09-06T05:55:26.727Z,17.18
2022-09-06T05:56:28.566Z,17.18
2022-09-06T05:57:30.332Z,17.18
2022-09-06T05:58:32.172Z,17.20
2022-09-06T05:59:34.036Z,17.21
2022-09-06T06:00:35.895Z,17.21
2022-09-06T06:01:37.740Z,17.19
2022-09-06T06:02:40.312Z,17.18
2022-09-06T06:03:42.234Z,17.18
2022-09-06T06:04:44.173Z,17.19
2022-09-06T06:05:49.160Z,17.22
2022-09-06T06:06:51.040Z,17.20
2022-09-06T06:07:52.982Z,17.22
2022-09-06T06:08:55.240Z,17.20
2022-09-06T06:09:57.131Z,17.20
2022-09-06T06:10:59.941Z,17.21
2022-09-06T06:12:01.790Z,17.22
2022-09-06T06:13:03.619Z,17.25
2022-09-06T06:14:05.599Z,17.28
2022-09-06T06:15:07.592Z,17.30
2022-09-06T06:16:10.628Z,17.34
2022-09-06T06:17:12.482Z,17.36
2022-09-06T06:18:14.315Z,17.37
2022-09-06T06:19:16.368Z,17.39
2022-09-06T06:20:18.200Z,17.39
2022-09-06T06:21:21.735Z,17.39
2022-09-06T06:22:23.650Z,17.37
2022-09-06T06:23:26.166Z,17.38
2022-09-06T06:24:28.141Z,17.34
2022-09-06T06:25:29.946Z,17.29
2022-09-06T06:26:34.472Z,17.29
2022-09-06T06:27:37.426Z,17.33
2022-09-06T06:28:39.529Z,17.39
2022-09-06T06:29:41.408Z,17.43
2022-09-06T06:30:43.219Z,17.45
2022-09-06T06:31:45.070Z,17.49
2022-09-06T06:32:46.939Z,17.51
2022-09-06T06:33:48.841Z,17.54
2022-09-06T06:34:50.736Z,17.59
2022-09-06T06:35:58.794Z,17.58
2022-09-06T06:37:00.674Z,17.58
2022-09-06T06:38:02.485Z,17.62
2022-09-06T06:39:06.660Z,17.65
2022-09-06T06:40:08.938Z,17.69
2022-09-06T06:41:12.314Z,17.72
2022-09-06T06:42:16.344Z,17.73
2022-09-06T06:43:18.656Z,17.78
2022-09-06T06:44:20.448Z,17.80
2022-09-06T06:45:22.446Z,17.83
2022-09-06T06:46:25.888Z,17.87
2022-09-06T06:47:27.834Z,17.93
2022-09-06T06:48:29.735Z,17.98
2022-09-06T06:49:31.722Z,18.04
2022-09-06T06:50:33.494Z,18.07
2022-09-06T06:51:39.593Z,18.09
2022-09-06T06:52:41.469Z,18.12
2022-09-06T06:53:44.221Z,18.17
2022-09-06T06:54:46.064Z,18.20
2022-09-06T06:55:50.584Z,18.23
2022-09-06T06:56:52.513Z,18.26
2022-09-06T06:57:54.379Z,18.25
2022-09-06T06:59:00.281Z,18.29
2022-09-06T07:00:03.723Z,18.30
2022-09-06T07:01:05.675Z,18.35
2022-09-06T07:02:07.745Z,18.38
2022-09-06T07:03:09.997Z,18.34
2022-09-06T07:04:12.585Z,18.29
2022-09-06T07:08:11.254Z,18.37
2022-09-06T07:09:13.065Z,18.42
2022-09-06T07:11:36.738Z,18.50
2022-09-06T07:12:38.582Z,18.55
2022-09-06T07:13:40.775Z,18.61
2022-09-06T07:14:42.547Z,18.68
2022-09-06T07:15:44.368Z,18.70
2022-09-06T07:16:46.253Z,18.74
2022-09-06T07:17:48.113Z,18.76
2022-09-06T07:18:53.658Z,18.76
2022-09-06T07:22:40.686Z,18.90
2022-09-06T07:25:05.631Z,18.98
2022-09-06T07:26:08.158Z,19.03
2022-09-06T07:28:32.078Z,19.10
2022-09-06T07:29:34.001Z,19.15
2022-09-06T07:30:37.169Z,19.17
2022-09-06T07:33:01.257Z,19.22
2022-09-06T07:34:05.381Z,19.25
2022-09-06T07:35:07.573Z,19.27
2022-09-06T07:36:09.369Z,19.26
2022-09-06T07:37:11.217Z,19.30
2022-09-06T07:38:13.086Z,19.32
2022-09-06T07:39:14.974Z,19.35
2022-09-06T07:40:16.854Z,19.39
2022-09-06T07:41:19.804Z,19.40
2022-09-06T07:42:21.677Z,19.44
2022-09-06T07:43:23.732Z,19.48
2022-09-06T07:44:25.707Z,19.52
2022-09-06T07:45:27.918Z,19.56
2022-09-06T07:46:29.966Z,19.59
2022-09-06T07:48:53.648Z,19.65
2022-09-06T07:51:18.430Z,19.74
2022-09-06T07:53:42.680Z,19.79
2022-09-06T07:54:44.524Z,19.82
2022-09-06T07:55:46.539Z,19.84
2022-09-06T07:56:48.342Z,19.87
2022-09-06T07:57:50.163Z,19.90
2022-09-06T07:58:52.786Z,19.91
2022-09-06T07:59:54.559Z,19.94
2022-09-06T08:01:30.309Z,19.94
2022-09-06T08:02:32.391Z,19.95
2022-09-06T08:03:34.296Z,19.99
2022-09-06T08:04:36.077Z,20.02
2022-09-06T08:09:45.498Z,20.14
2022-09-06T08:10:50.885Z,20.15
2022-09-06T08:11:53.027Z,20.17
2022-09-06T08:12:57.668Z,20.20
2022-09-06T08:14:00.569Z,20.23
2022-09-06T08:15:02.602Z,20.25
2022-09-06T08:16:09.712Z,20.28
2022-09-06T08:17:11.754Z,20.29
2022-09-06T08:18:13.643Z,20.31
2022-09-06T08:19:15.923Z,20.34
2022-09-06T08:20:18.161Z,20.37
2022-09-06T08:21:20.391Z,20.44
2022-09-06T08:22:22.186Z,20.46
2022-09-06T08:23:24.069Z,20.48
2022-09-06T08:24:25.975Z,20.53
2022-09-06T08:25:27.856Z,20.55
2022-09-06T08:26:31.126Z,20.56
2022-09-06T08:27:32.999Z,20.60
2022-09-06T08:28:34.849Z,20.60
2022-09-06T08:29:36.688Z,20.62
2022-09-06T08:30:38.481Z,20.64
2022-09-06T08:31:42.096Z,20.67
2022-09-06T08:32:44.066Z,20.69
2022-09-06T08:33:47.859Z,20.73
2022-09-06T08:34:50.066Z,20.76
2022-09-06T08:35:55.197Z,20.81
2022-09-06T08:36:56.967Z,20.84
2022-09-06T08:37:58.845Z,20.84
2022-09-06T08:39:01.697Z,20.87
2022-09-06T08:40:04.081Z,20.89
2022-09-06T08:41:23.465Z,20.93
2022-09-06T08:42:25.281Z,21.00
2022-09-06T08:43:27.275Z,21.02
2022-09-06T08:45:55.863Z,21.11
2022-09-06T08:46:59.694Z,21.13
2022-09-06T08:48:01.601Z,21.17
2022-09-06T08:49:04.263Z,21.20
2022-09-06T08:50:07.313Z,21.27
2022-09-06T08:51:29.522Z,21.31
2022-09-06T08:52:31.414Z,21.35
2022-09-06T08:53:37.573Z,21.38
2022-09-06T08:54:59.445Z,21.40
2022-09-06T08:56:07.420Z,21.44
2022-09-06T08:57:15.524Z,21.46
2022-09-06T08:58:36.122Z,21.48
2022-09-06T08:59:43.172Z,21.55
2022-09-06T09:00:58.974Z,21.58
2022-09-06T09:02:13.609Z,21.64
2022-09-06T09:03:19.091Z,21.67
2022-09-06T09:04:22.785Z,21.71
2022-09-06T09:05:30.626Z,21.75
2022-09-06T09:06:33.278Z,21.78
2022-09-06T09:07:45.893Z,21.80
2022-09-06T09:09:03.712Z,21.82
2022-09-06T09:10:12.668Z,21.86
2022-09-06T09:11:18.901Z,21.91
2022-09-06T09:12:22.850Z,21.95
2022-09-06T09:13:27.867Z,21.98
2022-09-06T09:14:35.552Z,22.04
2022-09-06T09:15:40.396Z,22.10
2022-09-06T09:16:43.387Z,22.15
2022-09-06T09:17:45.993Z,22.21
2022-09-06T09:18:59.507Z,22.23
2022-09-06T09:20:01.275Z,22.25
2022-09-06T09:21:03.163Z,22.29
2022-09-06T09:22:05.042Z,22.33
2022-09-06T09:23:06.858Z,22.39
2022-09-06T09:24:12.509Z,22.43
2022-09-06T09:25:20.418Z,22.48
2022-09-06T09:26:24.162Z,22.56
2022-09-06T09:27:27.477Z,22.63
2022-09-06T09:28:29.597Z,22.68
2022-09-06T09:29:36.163Z,22.72
2022-09-06T09:30:50.288Z,22.74
2022-09-06T09:31:55.638Z,22.81
2022-09-06T09:32:57.675Z,22.84
2022-09-06T09:34:02.717Z,22.86
2022-09-06T09:35:23.835Z,22.89
2022-09-06T09:36:25.698Z,22.95
2022-09-06T09:38:50.309Z,23.04
2022-09-06T09:39:56.222Z,23.05
2022-09-06T09:41:00.421Z,23.09
2022-09-06T09:42:02.380Z,23.15
2022-09-06T09:43:13.117Z,23.21
2022-09-06T09:44:19.286Z,23.25
2022-09-06T09:45:21.333Z,23.29
2022-09-06T09:46:23.286Z,23.35
2022-09-06T09:47:28.679Z,23.39
2022-09-06T09:48:30.621Z,23.44
2022-09-06T09:49:32.891Z,23.49
2022-09-06T09:50:35.650Z,23.54
2022-09-06T09:51:41.535Z,23.57
2022-09-06T09:52:46.181Z,23.62
2022-09-06T09:53:55.510Z,23.69
2022-09-06T09:55:02.317Z,23.73
2022-09-06T09:56:04.128Z,23.80
2022-09-06T09:57:12.003Z,23.92
2022-09-06T09:58:34.533Z,23.96
2022-09-06T09:59:55.048Z,24.05
2022-09-06T10:01:11.227Z,24.09
2022-09-06T10:02:19.073Z,24.15
2022-09-06T10:03:27.294Z,24.22
2022-09-06T10:04:48.764Z,24.29
2022-09-06T10:06:02.498Z,24.33
2022-09-06T10:07:09.937Z,24.39
2022-09-06T10:08:13.123Z,24.42
2022-09-06T10:09:19.168Z,24.47
2022-09-06T10:10:28.305Z,24.50
2022-09-06T10:11:40.691Z,24.56
2022-09-06T10:12:43.456Z,24.63
2022-09-06T10:13:45.378Z,24.71
2022-09-06T10:14:48.804Z,24.79
2022-09-06T10:15:52.165Z,24.87
2022-09-06T10:16:54.244Z,24.94
2022-09-06T10:17:56.193Z,24.98
2022-09-06T10:18:58.082Z,25.05
2022-09-06T10:20:02.019Z,25.13
2022-09-06T10:21:03.798Z,25.20
2022-09-06T10:22:12.584Z,25.27
2022-09-06T10:23:14.516Z,25.31
2022-09-06T10:25:43.912Z,25.43
2022-09-06T10:26:52.218Z,25.48
2022-09-06T10:28:15.454Z,25.57
2022-09-06T10:29:25.715Z,25.64
2022-09-06T10:30:30.846Z,25.69
2022-09-06T10:31:43.685Z,25.73
2022-09-06T10:32:49.487Z,25.75
2022-09-06T10:34:03.569Z,25.78
2022-09-06T10:35:44.062Z,25.82
2022-09-06T10:36:56.914Z,25.93
2022-09-06T10:38:13.620Z,26.00
2022-09-06T10:39:30.543Z,26.04
2022-09-06T10:40:35.272Z,26.07
2022-09-06T10:41:39.800Z,26.15
2022-09-06T10:42:54.370Z,26.21
2022-09-06T10:44:05.328Z,26.26
2022-09-06T10:45:16.904Z,26.31
2022-09-06T10:46:21.971Z,26.34
2022-09-06T10:47:33.006Z,26.42
2022-09-06T10:48:46.072Z,26.46
2022-09-06T10:49:54.538Z,26.54
2022-09-06T10:51:05.649Z,26.61
2022-09-06T10:52:08.998Z,26.65
2022-09-06T10:53:22.669Z,26.69
2022-09-06T10:54:25.006Z,26.74
2022-09-06T10:55:28.263Z,26.79
2022-09-06T10:56:36.140Z,26.86
2022-09-06T10:59:37.658Z,26.96
2022-09-06T11:00:47.601Z,26.98
2022-09-06T11:02:09.429Z,27.03
2022-09-06T11:06:13.085Z,27.19
2022-09-06T11:07:20.568Z,27.19
2022-09-06T11:09:49.023Z,27.25
2022-09-06T11:10:53.044Z,27.25
2022-09-06T11:12:02.983Z,27.26
2022-09-06T11:13:20.927Z,27.30
2022-09-06T11:14:24.175Z,27.36
2022-09-06T11:15:28.472Z,27.41
2022-09-06T11:16:34.286Z,27.44
2022-09-06T11:17:36.282Z,27.48
2022-09-06T11:18:47.727Z,27.50
2022-09-06T11:19:52.630Z,27.55
2022-09-06T11:21:09.568Z,27.59
2022-09-06T11:22:26.713Z,27.58
2022-09-06T11:23:28.628Z,27.61
2022-09-06T11:24:42.545Z,27.63
2022-09-06T11:26:03.124Z,27.65
2022-09-06T11:27:10.017Z,27.69
2022-09-06T11:28:16.193Z,27.74
2022-09-06T11:29:20.280Z,27.78
2022-09-06T11:30:23.239Z,27.83
2022-09-06T11:32:51.154Z,27.89
2022-09-06T11:34:09.431Z,27.92
2022-09-06T11:35:21.527Z,28.00
2022-09-06T11:36:38.036Z,27.97
2022-09-06T11:37:43.224Z,27.93
2022-09-06T11:38:55.723Z,27.95
2022-09-06T11:40:26.866Z,27.99
2022-09-06T11:41:32.148Z,28.05
2022-09-06T11:42:40.981Z,28.05
2022-09-06T11:43:45.361Z,28.13
2022-09-06T11:44:50.020Z,28.19
2022-09-06T11:45:52.808Z,28.23
2022-09-06T11:46:54.780Z,28.24
2022-09-06T11:47:56.900Z,28.24
2022-09-06T11:49:02.702Z,28.27
2022-09-06T11:50:24.555Z,28.29
2022-09-06T11:51:36.731Z,28.32
2022-09-06T11:52:58.101Z,28.41
2022-09-06T11:54:00.019Z,28.49
2022-09-06T11:55:02.848Z,28.56
2022-09-06T11:56:04.631Z,28.58
2022-09-06T11:57:15.100Z,28.63
2022-09-06T11:58:16.984Z,28.72
2022-09-06T11:59:24.430Z,28.75
2022-09-06T12:00:27.321Z,28.78
2022-09-06T12:01:29.122Z,28.76
2022-09-06T12:02:31.197Z,28.78
2022-09-06T12:04:04.092Z,28.80
2022-09-06T12:05:09.987Z,28.84
2022-09-06T12:06:18.093Z,28.88
2022-09-06T12:07:19.912Z,28.90
2022-09-06T12:08:21.656Z,28.98
2022-09-06T12:09:28.369Z,29.02
2022-09-06T12:10:30.157Z,29.06
2022-09-06T12:11:37.740Z,29.11
2022-09-06T12:12:45.974Z,29.12
2022-09-06T12:13:49.840Z,29.15
2022-09-06T12:14:51.874Z,29.14
2022-09-06T12:15:54.796Z,29.15
2022-09-06T12:17:00.603Z,29.15
2022-09-06T12:18:02.429Z,29.15
2022-09-06T12:19:04.348Z,29.20
2022-09-06T12:20:07.188Z,29.25
2022-09-06T12:21:29.048Z,29.27
2022-09-06T12:22:31.297Z,29.27
2022-09-06T12:23:35.834Z,29.25
2022-09-06T12:24:39.112Z,29.24
2022-09-06T12:25:41.613Z,29.24
2022-09-06T12:27:08.061Z,29.29
2022-09-06T12:28:12.832Z,29.31
2022-09-06T12:29:14.886Z,29.25
2022-09-06T12:30:31.672Z,29.23
2022-09-06T12:31:33.667Z,29.23
2022-09-06T12:32:38.080Z,29.26
2022-09-06T12:33:39.918Z,29.34
2022-09-06T12:34:44.810Z,29.42
2022-09-06T12:36:04.657Z,29.50
2022-09-06T12:37:10.925Z,29.67
2022-09-06T12:38:14.341Z,29.61
2022-09-06T12:39:16.520Z,29.47
2022-09-06T12:40:19.861Z,29.39
2022-09-06T12:41:22.971Z,29.18
2022-09-06T12:42:24.870Z,29.05
2022-09-06T12:43:27.349Z,28.92
2022-09-06T12:44:31.506Z,28.84
2022-09-06T12:45:33.420Z,28.81
2022-09-06T12:46:35.848Z,28.77
2022-09-06T12:47:38.639Z,28.69
2022-09-06T12:48:44.617Z,28.64
2022-09-06T12:49:46.515Z,28.59
2022-09-06T12:51:00.375Z,28.59
2022-09-06T12:52:13.287Z,28.60
2022-09-06T12:53:25.809Z,28.63
2022-09-06T12:54:29.197Z,28.75
2022-09-06T12:55:33.548Z,28.68
2022-09-06T12:56:35.530Z,28.69
2022-09-06T12:57:37.317Z,28.78
2022-09-06T12:58:39.887Z,28.91
2022-09-06T12:59:54.855Z,29.04
2022-09-06T13:01:02.305Z,29.10
2022-09-06T13:02:14.187Z,29.20
2022-09-06T13:03:34.587Z,29.27
2022-09-06T13:04:44.175Z,29.40
2022-09-06T13:05:46.084Z,29.49
2022-09-06T13:06:48.654Z,29.56
2022-09-06T13:07:52.687Z,29.72
2022-09-06T13:08:58.830Z,29.81
2022-09-06T13:10:00.844Z,29.89
2022-09-06T13:11:04.104Z,29.92
2022-09-06T13:12:08.040Z,29.94
2022-09-06T13:13:10.094Z,29.99
2022-09-06T13:14:14.647Z,30.01
2022-09-06T13:15:21.768Z,30.01
2022-09-06T13:16:27.486Z,30.00
2022-09-06T13:17:30.843Z,30.07
2022-09-06T13:18:37.730Z,30.09
2022-09-06T13:19:40.820Z,30.10
2022-09-06T13:20:43.027Z,30.17
2022-09-06T13:21:46.256Z,30.22
2022-09-06T13:22:49.762Z,30.08
2022-09-06T13:23:51.729Z,29.98
2022-09-06T13:24:56.269Z,30.00
2022-09-06T13:25:58.176Z,29.98
2022-09-06T13:27:00.011Z,29.85
2022-09-06T13:28:02.789Z,29.84
2022-09-06T13:29:24.044Z,29.75
2022-09-06T13:30:36.187Z,29.62
2022-09-06T13:31:38.562Z,29.44
2022-09-06T13:32:46.915Z,29.32
2022-09-06T13:33:59.187Z,29.35
2022-09-06T13:35:01.574Z,29.49
2022-09-06T13:36:08.736Z,29.52
2022-09-06T13:37:12.147Z,29.58
2022-09-06T13:38:20.996Z,29.64
2022-09-06T13:39:29.610Z,29.76
2022-09-06T13:41:06.980Z,29.84
2022-09-06T13:42:10.930Z,29.94
2022-09-06T13:43:13.275Z,29.98
2022-09-06T13:44:15.044Z,30.07
2022-09-06T13:45:27.877Z,30.08
2022-09-06T13:46:29.874Z,30.07
2022-09-06T13:47:31.935Z,30.10
2022-09-06T13:48:34.364Z,30.17
2022-09-06T13:49:36.219Z,30.18
2022-09-06T13:50:38.179Z,30.24
2022-09-06T13:51:43.110Z,30.33
2022-09-06T13:52:44.995Z,30.34
2022-09-06T13:53:46.828Z,30.37
2022-09-06T13:54:49.063Z,30.40
2022-09-06T13:55:53.055Z,30.26
2022-09-06T13:56:55.805Z,30.11
2022-09-06T13:57:57.642Z,29.91
2022-09-06T13:58:59.424Z,29.94
2022-09-06T14:00:01.333Z,29.90
2022-09-06T14:01:03.914Z,29.91
2022-09-06T14:02:08.017Z,29.96
2022-09-06T14:03:12.409Z,29.83
2022-09-06T14:04:15.903Z,29.65
2022-09-06T14:05:18.226Z,29.59
2022-09-06T14:06:20.138Z,29.68
2022-09-06T14:07:22.081Z,29.66
2022-09-06T14:08:24.421Z,29.69
2022-09-06T14:09:26.449Z,29.67
2022-09-06T14:10:28.395Z,29.56
2022-09-06T14:11:30.366Z,29.37
2022-09-06T14:12:33.674Z,29.19
2022-09-06T14:13:35.607Z,29.04
2022-09-06T14:14:37.470Z,28.95
2022-09-06T14:15:39.506Z,28.88
2022-09-06T14:16:41.447Z,28.73
2022-09-06T14:17:43.252Z,28.63
2022-09-06T14:18:45.538Z,28.56
2022-09-06T14:19:47.377Z,28.51
2022-09-06T14:20:53.660Z,28.48
2022-09-06T14:21:55.565Z,28.42
2022-09-06T14:22:57.471Z,28.38
2022-09-06T14:24:03.842Z,28.38
2022-09-06T14:25:07.288Z,28.41